sensor_id;sensor_type;location;lat;lon;timestamp;pressure;altitude;pressure_sealevel;temperature
9119;BMP180;4594;50.994;7.126;2023-07-13T00:01:53;100636.00;;;22.50
9119;BMP180;4594;50.994;7.126;2023-07-13T00:04:22;100642.00;;;22.50
9119;BMP180;4594;50.994;7.126;2023-07-13T00:06:51;100647.00;;;22.40
9119;BMP180;4594;50.994;7.126;2023-07-13T00:09:18;100636.00;;;22.40
9119;BMP180;4594;50.994;7.126;2023-07-13T00:11:45;100637.00;;;22.40
9119;BMP180;4594;50.994;7.126;2023-07-13T00:14:13;100638.00;;;22.30
9119;BMP180;4594;50.994;7.126;2023-07-13T00:16:41;100634.00;;;22.30
9119;BMP180;4594;50.994;7.126;2023-07-13T00:19:10;100639.00;;;22.20
9119;BMP180;4594;50.994;7.126;2023-07-13T00:21:37;100634.00;;;22.20
9119;BMP180;4594;50.994;7.126;2023-07-13T00:24:05;100636.00;;;22.10
9119;BMP180;4594;50.994;7.126;2023-07-13T00:26:30;100624.00;;;22.10
9119;BMP180;4594;50.994;7.126;2023-07-13T00:28:58;100632.00;;;22.00
9119;BMP180;4594;50.994;7.126;2023-07-13T00:31:25;100629.00;;;22.00
9119;BMP180;4594;50.994;7.126;2023-07-13T00:33:51;100632.00;;;21.90
9119;BMP180;4594;50.994;7.126;2023-07-13T00:36:17;100638.00;;;21.90
9119;BMP180;4594;50.994;7.126;2023-07-13T00:38:43;100640.00;;;21.80
9119;BMP180;4594;50.994;7.126;2023-07-13T00:41:10;100630.00;;;21.80
9119;BMP180;4594;50.994;7.126;2023-07-13T00:43:36;100637.00;;;21.80
9119;BMP180;4594;50.994;7.126;2023-07-13T00:46:25;100634.00;;;21.80
9119;BMP180;4594;50.994;7.126;2023-07-13T00:48:54;100623.00;;;21.70
9119;BMP180;4594;50.994;7.126;2023-07-13T00:51:30;100628.00;;;21.70
9119;BMP180;4594;50.994;7.126;2023-07-13T00:54:02;100623.00;;;21.70
9119;BMP180;4594;50.994;7.126;2023-07-13T00:56:29;100626.00;;;21.70
9119;BMP180;4594;50.994;7.126;2023-07-13T00:58:56;100623.00;;;21.70
9119;BMP180;4594;50.994;7.126;2023-07-13T01:01:22;100629.00;;;21.70
9119;BMP180;4594;50.994;7.126;2023-07-13T01:03:48;100607.00;;;21.60
9119;BMP180;4594;50.994;7.126;2023-07-13T01:06:14;100621.00;;;21.60
9119;BMP180;4594;50.994;7.126;2023-07-13T01:08:40;100624.00;;;21.60
9119;BMP180;4594;50.994;7.126;2023-07-13T01:11:06;100625.00;;;21.50
9119;BMP180;4594;50.994;7.126;2023-07-13T01:13:33;100621.00;;;21.50
9119;BMP180;4594;50.994;7.126;2023-07-13T01:16:05;100634.00;;;21.50
9119;BMP180;4594;50.994;7.126;2023-07-13T01:18:37;100619.00;;;21.40
9119;BMP180;4594;50.994;7.126;2023-07-13T01:21:04;100626.00;;;21.40
9119;BMP180;4594;50.994;7.126;2023-07-13T01:23:32;100644.00;;;21.30
9119;BMP180;4594;50.994;7.126;2023-07-13T01:25:59;100637.00;;;21.30
9119;BMP180;4594;50.994;7.126;2023-07-13T01:28:27;100626.00;;;21.30
9119;BMP180;4594;50.994;7.126;2023-07-13T01:30:56;100633.00;;;21.20
9119;BMP180;4594;50.994;7.126;2023-07-13T01:33:23;100629.00;;;21.20
9119;BMP180;4594;50.994;7.126;2023-07-13T01:35:49;100634.00;;;21.10
9119;BMP180;4594;50.994;7.126;2023-07-13T01:38:18;100635.00;;;21.10
9119;BMP180;4594;50.994;7.126;2023-07-13T01:40:44;100621.00;;;21.10
9119;BMP180;4594;50.994;7.126;2023-07-13T01:43:10;100643.00;;;21.00
9119;BMP180;4594;50.994;7.126;2023-07-13T01:45:37;100626.00;;;21.00
9119;BMP180;4594;50.994;7.126;2023-07-13T01:48:03;100639.00;;;20.90
9119;BMP180;4594;50.994;7.126;2023-07-13T01:50:29;100635.00;;;20.90
9119;BMP180;4594;50.994;7.126;2023-07-13T01:52:55;100611.00;;;20.90
9119;BMP180;4594;50.994;7.126;2023-07-13T01:55:21;100634.00;;;20.80
9119;BMP180;4594;50.994;7.126;2023-07-13T01:57:48;100627.00;;;20.80
9119;BMP180;4594;50.994;7.126;2023-07-13T02:00:15;100635.00;;;20.80
9119;BMP180;4594;50.994;7.126;2023-07-13T02:02:41;100632.00;;;20.70
9119;BMP180;4594;50.994;7.126;2023-07-13T02:05:07;100631.00;;;20.70
9119;BMP180;4594;50.994;7.126;2023-07-13T02:07:33;100637.00;;;20.60
9119;BMP180;4594;50.994;7.126;2023-07-13T02:09:59;100649.00;;;20.60
9119;BMP180;4594;50.994;7.126;2023-07-13T02:12:24;100634.00;;;20.50
9119;BMP180;4594;50.994;7.126;2023-07-13T02:14:50;100637.00;;;20.50
9119;BMP180;4594;50.994;7.126;2023-07-13T02:17:16;100640.00;;;20.40
9119;BMP180;4594;50.994;7.126;2023-07-13T02:19:41;100635.00;;;20.40
9119;BMP180;4594;50.994;7.126;2023-07-13T02:22:07;100631.00;;;20.40
9119;BMP180;4594;50.994;7.126;2023-07-13T02:24:33;100649.00;;;20.30
9119;BMP180;4594;50.994;7.126;2023-07-13T02:26:59;100646.00;;;20.30
9119;BMP180;4594;50.994;7.126;2023-07-13T02:29:24;100629.00;;;20.20
9119;BMP180;4594;50.994;7.126;2023-07-13T02:31:50;100635.00;;;20.20
9119;BMP180;4594;50.994;7.126;2023-07-13T02:34:16;100643.00;;;20.20
9119;BMP180;4594;50.994;7.126;2023-07-13T02:36:41;100629.00;;;20.20
9119;BMP180;4594;50.994;7.126;2023-07-13T02:39:08;100641.00;;;20.10
9119;BMP180;4594;50.994;7.126;2023-07-13T02:41:36;100646.00;;;20.10
9119;BMP180;4594;50.994;7.126;2023-07-13T02:44:02;100642.00;;;20.10
9119;BMP180;4594;50.994;7.126;2023-07-13T02:46:38;100642.00;;;20.00
9119;BMP180;4594;50.994;7.126;2023-07-13T02:49:04;100625.00;;;20.00
9119;BMP180;4594;50.994;7.126;2023-07-13T02:51:31;100626.00;;;20.00
9119;BMP180;4594;50.994;7.126;2023-07-13T02:53:58;100644.00;;;19.90
9119;BMP180;4594;50.994;7.126;2023-07-13T02:56:27;100632.00;;;19.90
9119;BMP180;4594;50.994;7.126;2023-07-13T02:58:54;100630.00;;;19.90
9119;BMP180;4594;50.994;7.126;2023-07-13T03:01:21;100650.00;;;19.90
9119;BMP180;4594;50.994;7.126;2023-07-13T03:03:48;100642.00;;;19.80
9119;BMP180;4594;50.994;7.126;2023-07-13T03:06:15;100639.00;;;19.80
9119;BMP180;4594;50.994;7.126;2023-07-13T03:08:43;100650.00;;;19.80
9119;BMP180;4594;50.994;7.126;2023-07-13T03:11:17;100659.00;;;19.80
9119;BMP180;4594;50.994;7.126;2023-07-13T03:13:43;100646.00;;;19.70
9119;BMP180;4594;50.994;7.126;2023-07-13T03:16:10;100654.00;;;19.70
9119;BMP180;4594;50.994;7.126;2023-07-13T03:18:37;100654.00;;;19.70
9119;BMP180;4594;50.994;7.126;2023-07-13T03:21:03;100644.00;;;19.70
9119;BMP180;4594;50.994;7.126;2023-07-13T03:23:30;100644.00;;;19.70
9119;BMP180;4594;50.994;7.126;2023-07-13T03:26:07;100659.00;;;19.70
9119;BMP180;4594;50.994;7.126;2023-07-13T03:28:33;100661.00;;;19.70
9119;BMP180;4594;50.994;7.126;2023-07-13T03:31:11;100659.00;;;19.70
9119;BMP180;4594;50.994;7.126;2023-07-13T03:33:38;100657.00;;;19.70
9119;BMP180;4594;50.994;7.126;2023-07-13T03:36:06;100657.00;;;19.70
9119;BMP180;4594;50.994;7.126;2023-07-13T03:38:32;100658.00;;;19.70
9119;BMP180;4594;50.994;7.126;2023-07-13T03:40:58;100652.00;;;19.70
9119;BMP180;4594;50.994;7.126;2023-07-13T03:43:24;100670.00;;;19.70
9119;BMP180;4594;50.994;7.126;2023-07-13T03:45:50;100660.00;;;19.70
9119;BMP180;4594;50.994;7.126;2023-07-13T03:48:16;100674.00;;;19.70
9119;BMP180;4594;50.994;7.126;2023-07-13T03:50:41;100692.00;;;19.80
9119;BMP180;4594;50.994;7.126;2023-07-13T03:53:07;100689.00;;;19.80
9119;BMP180;4594;50.994;7.126;2023-07-13T03:55:33;100673.00;;;19.80
9119;BMP180;4594;50.994;7.126;2023-07-13T04:00:54;100676.00;;;19.80
9119;BMP180;4594;50.994;7.126;2023-07-13T04:03:20;100684.00;;;19.80
9119;BMP180;4594;50.994;7.126;2023-07-13T04:05:46;100691.00;;;19.80
9119;BMP180;4594;50.994;7.126;2023-07-13T04:08:13;100691.00;;;19.80
9119;BMP180;4594;50.994;7.126;2023-07-13T04:10:38;100704.00;;;19.90
9119;BMP180;4594;50.994;7.126;2023-07-13T04:13:05;100700.00;;;19.90
9119;BMP180;4594;50.994;7.126;2023-07-13T04:15:32;100690.00;;;19.90
9119;BMP180;4594;50.994;7.126;2023-07-13T04:17:58;100686.00;;;19.90
9119;BMP180;4594;50.994;7.126;2023-07-13T04:20:27;100684.00;;;19.90
9119;BMP180;4594;50.994;7.126;2023-07-13T04:22:53;100678.00;;;20.00
9119;BMP180;4594;50.994;7.126;2023-07-13T04:25:19;100703.00;;;20.00
9119;BMP180;4594;50.994;7.126;2023-07-13T04:27:45;100696.00;;;20.00
9119;BMP180;4594;50.994;7.126;2023-07-13T04:30:11;100689.00;;;20.10
9119;BMP180;4594;50.994;7.126;2023-07-13T04:32:37;100699.00;;;20.10
9119;BMP180;4594;50.994;7.126;2023-07-13T04:35:03;100692.00;;;20.10
9119;BMP180;4594;50.994;7.126;2023-07-13T04:37:29;100687.00;;;20.20
9119;BMP180;4594;50.994;7.126;2023-07-13T04:39:55;100694.00;;;20.20
9119;BMP180;4594;50.994;7.126;2023-07-13T04:42:22;100693.00;;;20.30
9119;BMP180;4594;50.994;7.126;2023-07-13T04:44:49;100703.00;;;20.30
9119;BMP180;4594;50.994;7.126;2023-07-13T04:47:15;100690.00;;;20.40
9119;BMP180;4594;50.994;7.126;2023-07-13T04:49:41;100697.00;;;20.50
9119;BMP180;4594;50.994;7.126;2023-07-13T04:52:07;100705.00;;;20.60
9119;BMP180;4594;50.994;7.126;2023-07-13T04:54:34;100710.00;;;20.70
9119;BMP180;4594;50.994;7.126;2023-07-13T04:57:00;100708.00;;;20.80
9119;BMP180;4594;50.994;7.126;2023-07-13T04:59:26;100711.00;;;20.80
9119;BMP180;4594;50.994;7.126;2023-07-13T05:01:53;100698.00;;;21.00
9119;BMP180;4594;50.994;7.126;2023-07-13T05:04:19;100715.00;;;21.10
9119;BMP180;4594;50.994;7.126;2023-07-13T05:06:45;100717.00;;;21.30
9119;BMP180;4594;50.994;7.126;2023-07-13T05:09:10;100707.00;;;21.40
9119;BMP180;4594;50.994;7.126;2023-07-13T05:11:38;100718.00;;;21.60
9119;BMP180;4594;50.994;7.126;2023-07-13T05:14:04;100709.00;;;21.90
9119;BMP180;4594;50.994;7.126;2023-07-13T05:16:29;100706.00;;;22.20
9119;BMP180;4594;50.994;7.126;2023-07-13T05:18:55;100713.00;;;22.50
9119;BMP180;4594;50.994;7.126;2023-07-13T05:21:21;100709.00;;;22.80
9119;BMP180;4594;50.994;7.126;2023-07-13T05:23:47;100714.00;;;23.20
9119;BMP180;4594;50.994;7.126;2023-07-13T05:26:13;100723.00;;;23.60
9119;BMP180;4594;50.994;7.126;2023-07-13T05:28:39;100716.00;;;24.00
9119;BMP180;4594;50.994;7.126;2023-07-13T05:31:08;100707.00;;;24.40
9119;BMP180;4594;50.994;7.126;2023-07-13T05:33:34;100716.00;;;24.80
9119;BMP180;4594;50.994;7.126;2023-07-13T05:36:00;100718.00;;;25.10
9119;BMP180;4594;50.994;7.126;2023-07-13T05:38:27;100728.00;;;25.30
9119;BMP180;4594;50.994;7.126;2023-07-13T05:40:55;100717.00;;;25.70
9119;BMP180;4594;50.994;7.126;2023-07-13T05:43:22;100717.00;;;26.10
9119;BMP180;4594;50.994;7.126;2023-07-13T05:45:48;100719.00;;;26.50
9119;BMP180;4594;50.994;7.126;2023-07-13T05:48:15;100734.00;;;26.80
9119;BMP180;4594;50.994;7.126;2023-07-13T05:50:41;100734.00;;;27.30
9119;BMP180;4594;50.994;7.126;2023-07-13T05:53:07;100733.00;;;27.70
9119;BMP180;4594;50.994;7.126;2023-07-13T05:55:33;100738.00;;;28.20
9119;BMP180;4594;50.994;7.126;2023-07-13T05:58:00;100723.00;;;28.70
9119;BMP180;4594;50.994;7.126;2023-07-13T06:00:26;100729.00;;;29.20
9119;BMP180;4594;50.994;7.126;2023-07-13T06:02:52;100746.00;;;29.60
9119;BMP180;4594;50.994;7.126;2023-07-13T06:05:18;100743.00;;;30.00
9119;BMP180;4594;50.994;7.126;2023-07-13T06:07:44;100751.00;;;30.40
9119;BMP180;4594;50.994;7.126;2023-07-13T06:10:10;100740.00;;;30.60
9119;BMP180;4594;50.994;7.126;2023-07-13T06:12:35;100746.00;;;30.90
9119;BMP180;4594;50.994;7.126;2023-07-13T06:15:01;100756.00;;;31.10
9119;BMP180;4594;50.994;7.126;2023-07-13T06:17:27;100752.00;;;31.40
9119;BMP180;4594;50.994;7.126;2023-07-13T06:19:53;100744.00;;;31.60
9119;BMP180;4594;50.994;7.126;2023-07-13T06:22:19;100761.00;;;31.70
9119;BMP180;4594;50.994;7.126;2023-07-13T06:24:44;100752.00;;;31.80
9119;BMP180;4594;50.994;7.126;2023-07-13T06:27:10;100748.00;;;31.80
9119;BMP180;4594;50.994;7.126;2023-07-13T06:29:36;100759.00;;;32.00
9119;BMP180;4594;50.994;7.126;2023-07-13T06:32:02;100772.00;;;32.20
9119;BMP180;4594;50.994;7.126;2023-07-13T06:34:27;100776.00;;;32.50
9119;BMP180;4594;50.994;7.126;2023-07-13T06:36:53;100763.00;;;32.80
9119;BMP180;4594;50.994;7.126;2023-07-13T06:39:19;100773.00;;;33.00
9119;BMP180;4594;50.994;7.126;2023-07-13T06:41:44;100774.00;;;33.20
9119;BMP180;4594;50.994;7.126;2023-07-13T06:44:10;100774.00;;;33.40
9119;BMP180;4594;50.994;7.126;2023-07-13T06:46:35;100776.00;;;33.50
9119;BMP180;4594;50.994;7.126;2023-07-13T06:49:01;100782.00;;;33.60
9119;BMP180;4594;50.994;7.126;2023-07-13T06:51:27;100780.00;;;33.70
9119;BMP180;4594;50.994;7.126;2023-07-13T06:53:52;100792.00;;;33.80
9119;BMP180;4594;50.994;7.126;2023-07-13T06:56:19;100784.00;;;34.00
9119;BMP180;4594;50.994;7.126;2023-07-13T06:58:45;100768.00;;;34.40
9119;BMP180;4594;50.994;7.126;2023-07-13T07:01:11;100766.00;;;34.70
9119;BMP180;4594;50.994;7.126;2023-07-13T07:03:36;100784.00;;;35.00
9119;BMP180;4594;50.994;7.126;2023-07-13T07:06:15;100788.00;;;35.30
9119;BMP180;4594;50.994;7.126;2023-07-13T07:08:41;100790.00;;;35.60
9119;BMP180;4594;50.994;7.126;2023-07-13T07:11:16;100791.00;;;35.70
9119;BMP180;4594;50.994;7.126;2023-07-13T07:13:41;100789.00;;;35.80
9119;BMP180;4594;50.994;7.126;2023-07-13T07:16:07;100785.00;;;36.00
9119;BMP180;4594;50.994;7.126;2023-07-13T07:18:34;100792.00;;;36.30
9119;BMP180;4594;50.994;7.126;2023-07-13T07:21:00;100787.00;;;36.60
9119;BMP180;4594;50.994;7.126;2023-07-13T07:23:26;100793.00;;;37.00
9119;BMP180;4594;50.994;7.126;2023-07-13T07:25:52;100796.00;;;37.40
9119;BMP180;4594;50.994;7.126;2023-07-13T07:28:18;100799.00;;;37.90
9119;BMP180;4594;50.994;7.126;2023-07-13T07:30:48;100801.00;;;38.40
9119;BMP180;4594;50.994;7.126;2023-07-13T07:33:14;100799.00;;;38.80
9119;BMP180;4594;50.994;7.126;2023-07-13T07:35:40;100801.00;;;39.20
9119;BMP180;4594;50.994;7.126;2023-07-13T07:38:06;100801.00;;;39.40
9119;BMP180;4594;50.994;7.126;2023-07-13T07:40:38;100807.00;;;39.40
9119;BMP180;4594;50.994;7.126;2023-07-13T07:43:06;100792.00;;;39.50
9119;BMP180;4594;50.994;7.126;2023-07-13T07:45:32;100805.00;;;39.80
9119;BMP180;4594;50.994;7.126;2023-07-13T07:47:58;100799.00;;;40.10
9119;BMP180;4594;50.994;7.126;2023-07-13T07:50:28;100793.00;;;40.40
9119;BMP180;4594;50.994;7.126;2023-07-13T07:52:54;100798.00;;;40.70
9119;BMP180;4594;50.994;7.126;2023-07-13T07:55:24;100800.00;;;41.00
9119;BMP180;4594;50.994;7.126;2023-07-13T07:57:51;100789.00;;;41.30
9119;BMP180;4594;50.994;7.126;2023-07-13T08:00:17;100797.00;;;41.60
9119;BMP180;4594;50.994;7.126;2023-07-13T08:02:45;100791.00;;;41.70
9119;BMP180;4594;50.994;7.126;2023-07-13T08:05:11;100790.00;;;41.80
9119;BMP180;4594;50.994;7.126;2023-07-13T08:07:38;100790.00;;;42.10
9119;BMP180;4594;50.994;7.126;2023-07-13T08:10:06;100789.00;;;42.20
9119;BMP180;4594;50.994;7.126;2023-07-13T08:12:39;100795.00;;;42.30
9119;BMP180;4594;50.994;7.126;2023-07-13T08:15:10;100788.00;;;42.30
9119;BMP180;4594;50.994;7.126;2023-07-13T08:17:35;100801.00;;;42.30
9119;BMP180;4594;50.994;7.126;2023-07-13T08:20:01;100796.00;;;42.50
9119;BMP180;4594;50.994;7.126;2023-07-13T08:22:28;100798.00;;;42.60
9119;BMP180;4594;50.994;7.126;2023-07-13T08:24:53;100784.00;;;42.70
9119;BMP180;4594;50.994;7.126;2023-07-13T08:27:27;100800.00;;;42.80
9119;BMP180;4594;50.994;7.126;2023-07-13T08:29:54;100792.00;;;43.00
9119;BMP180;4594;50.994;7.126;2023-07-13T08:32:22;100788.00;;;43.20
9119;BMP180;4594;50.994;7.126;2023-07-13T08:34:50;100793.00;;;43.60
9119;BMP180;4594;50.994;7.126;2023-07-13T08:37:16;100795.00;;;43.80
9119;BMP180;4594;50.994;7.126;2023-07-13T08:39:42;100790.00;;;44.00
9119;BMP180;4594;50.994;7.126;2023-07-13T08:42:53;100794.00;;;44.20
9119;BMP180;4594;50.994;7.126;2023-07-13T08:45:34;100795.00;;;44.60
9119;BMP180;4594;50.994;7.126;2023-07-13T08:48:11;100783.00;;;45.00
9119;BMP180;4594;50.994;7.126;2023-07-13T08:53:41;100785.00;;;45.50
9119;BMP180;4594;50.994;7.126;2023-07-13T08:56:18;100787.00;;;45.60
9119;BMP180;4594;50.994;7.126;2023-07-13T08:58:47;100781.00;;;45.60
9119;BMP180;4594;50.994;7.126;2023-07-13T09:04:25;100778.00;;;46.30
9119;BMP180;4594;50.994;7.126;2023-07-13T09:10:14;100804.00;;;46.40
9119;BMP180;4594;50.994;7.126;2023-07-13T09:15:48;100810.00;;;45.90
9119;BMP180;4594;50.994;7.126;2023-07-13T09:18:33;100807.00;;;45.80
9119;BMP180;4594;50.994;7.126;2023-07-13T09:21:09;100813.00;;;45.60
9119;BMP180;4594;50.994;7.126;2023-07-13T09:23:37;100817.00;;;45.30
9119;BMP180;4594;50.994;7.126;2023-07-13T09:26:18;100814.00;;;44.80
9119;BMP180;4594;50.994;7.126;2023-07-13T09:28:48;100810.00;;;44.40
9119;BMP180;4594;50.994;7.126;2023-07-13T09:31:26;100819.00;;;44.30
9119;BMP180;4594;50.994;7.126;2023-07-13T09:33:55;100812.00;;;44.10
9119;BMP180;4594;50.994;7.126;2023-07-13T09:36:33;100811.00;;;43.90
9119;BMP180;4594;50.994;7.126;2023-07-13T09:39:39;100817.00;;;43.70
9119;BMP180;4594;50.994;7.126;2023-07-13T09:42:17;100818.00;;;43.70
9119;BMP180;4594;50.994;7.126;2023-07-13T09:47:40;100820.00;;;43.90
9119;BMP180;4594;50.994;7.126;2023-07-13T09:50:16;100814.00;;;43.70
9119;BMP180;4594;50.994;7.126;2023-07-13T09:52:48;100811.00;;;43.30
9119;BMP180;4594;50.994;7.126;2023-07-13T09:55:36;100817.00;;;43.00
9119;BMP180;4594;50.994;7.126;2023-07-13T09:58:11;100829.00;;;42.60
9119;BMP180;4594;50.994;7.126;2023-07-13T10:00:38;100823.00;;;42.10
9119;BMP180;4594;50.994;7.126;2023-07-13T10:03:21;100826.00;;;41.50
9119;BMP180;4594;50.994;7.126;2023-07-13T10:05:50;100834.00;;;41.10
9119;BMP180;4594;50.994;7.126;2023-07-13T10:08:35;100825.00;;;40.80
9119;BMP180;4594;50.994;7.126;2023-07-13T10:11:29;100828.00;;;40.50
9119;BMP180;4594;50.994;7.126;2023-07-13T10:14:09;100827.00;;;40.20
9119;BMP180;4594;50.994;7.126;2023-07-13T10:16:36;100833.00;;;40.00
9119;BMP180;4594;50.994;7.126;2023-07-13T10:19:12;100836.00;;;39.80
9119;BMP180;4594;50.994;7.126;2023-07-13T10:22:12;100836.00;;;39.40
9119;BMP180;4594;50.994;7.126;2023-07-13T10:24:40;100819.00;;;39.20
9119;BMP180;4594;50.994;7.126;2023-07-13T10:27:25;100844.00;;;39.00
9119;BMP180;4594;50.994;7.126;2023-07-13T10:30:15;100831.00;;;38.70
9119;BMP180;4594;50.994;7.126;2023-07-13T10:32:45;100825.00;;;38.50
9119;BMP180;4594;50.994;7.126;2023-07-13T10:35:15;100835.00;;;38.70
9119;BMP180;4594;50.994;7.126;2023-07-13T10:38:06;100836.00;;;38.70
9119;BMP180;4594;50.994;7.126;2023-07-13T10:41:04;100815.00;;;39.10
9119;BMP180;4594;50.994;7.126;2023-07-13T10:43:43;100823.00;;;39.70
9119;BMP180;4594;50.994;7.126;2023-07-13T10:46:17;100834.00;;;39.90
9119;BMP180;4594;50.994;7.126;2023-07-13T10:48:48;100845.00;;;39.70
9119;BMP180;4594;50.994;7.126;2023-07-13T10:51:17;100829.00;;;39.80
9119;BMP180;4594;50.994;7.126;2023-07-13T10:53:43;100822.00;;;40.50
9119;BMP180;4594;50.994;7.126;2023-07-13T10:58:46;100831.00;;;42.00
9119;BMP180;4594;50.994;7.126;2023-07-13T11:01:16;100828.00;;;42.80
9119;BMP180;4594;50.994;7.126;2023-07-13T11:03:55;100830.00;;;43.00
9119;BMP180;4594;50.994;7.126;2023-07-13T11:06:40;100829.00;;;43.60
9119;BMP180;4594;50.994;7.126;2023-07-13T11:09:38;100831.00;;;44.30
9119;BMP180;4594;50.994;7.126;2023-07-13T11:12:27;100826.00;;;44.60
9119;BMP180;4594;50.994;7.126;2023-07-13T11:20:24;100833.00;;;45.00
9119;BMP180;4594;50.994;7.126;2023-07-13T11:23:26;100843.00;;;44.20
9119;BMP180;4594;50.994;7.126;2023-07-13T11:25:53;100847.00;;;43.60
9119;BMP180;4594;50.994;7.126;2023-07-13T11:28:24;100847.00;;;42.90
9119;BMP180;4594;50.994;7.126;2023-07-13T11:31:01;100849.00;;;42.20
9119;BMP180;4594;50.994;7.126;2023-07-13T11:36:31;100858.00;;;40.90
9119;BMP180;4594;50.994;7.126;2023-07-13T11:39:04;100861.00;;;40.30
9119;BMP180;4594;50.994;7.126;2023-07-13T11:41:37;100837.00;;;39.70
9119;BMP180;4594;50.994;7.126;2023-07-13T11:44:18;100857.00;;;39.20
9119;BMP180;4594;50.994;7.126;2023-07-13T11:47:10;100851.00;;;38.70
9119;BMP180;4594;50.994;7.126;2023-07-13T11:49:52;100847.00;;;38.40
9119;BMP180;4594;50.994;7.126;2023-07-13T11:52:32;100839.00;;;38.20
9119;BMP180;4594;50.994;7.126;2023-07-13T11:55:01;100852.00;;;37.90
9119;BMP180;4594;50.994;7.126;2023-07-13T11:57:44;100845.00;;;37.60
9119;BMP180;4594;50.994;7.126;2023-07-13T12:00:15;100845.00;;;37.40
9119;BMP180;4594;50.994;7.126;2023-07-13T12:02:51;100862.00;;;37.10
9119;BMP180;4594;50.994;7.126;2023-07-13T12:05:20;100838.00;;;36.90
9119;BMP180;4594;50.994;7.126;2023-07-13T12:07:47;100848.00;;;36.60
9119;BMP180;4594;50.994;7.126;2023-07-13T12:12:52;100848.00;;;36.10
9119;BMP180;4594;50.994;7.126;2023-07-13T12:15:18;100835.00;;;35.90
9119;BMP180;4594;50.994;7.126;2023-07-13T12:17:46;100837.00;;;35.70
9119;BMP180;4594;50.994;7.126;2023-07-13T12:22:50;100834.00;;;35.40
9119;BMP180;4594;50.994;7.126;2023-07-13T12:25:18;100839.00;;;35.30
9119;BMP180;4594;50.994;7.126;2023-07-13T12:27:51;100845.00;;;35.10
9119;BMP180;4594;50.994;7.126;2023-07-13T12:30:31;100848.00;;;34.90
9119;BMP180;4594;50.994;7.126;2023-07-13T12:33:07;100843.00;;;34.70
9119;BMP180;4594;50.994;7.126;2023-07-13T12:35:46;100850.00;;;34.50
9119;BMP180;4594;50.994;7.126;2023-07-13T12:38:13;100826.00;;;34.40
9119;BMP180;4594;50.994;7.126;2023-07-13T12:40:39;100844.00;;;34.30
9119;BMP180;4594;50.994;7.126;2023-07-13T12:43:14;100854.00;;;34.20
9119;BMP180;4594;50.994;7.126;2023-07-13T12:48:21;100848.00;;;34.10
9119;BMP180;4594;50.994;7.126;2023-07-13T12:50:49;100839.00;;;34.10
9119;BMP180;4594;50.994;7.126;2023-07-13T12:53:28;100846.00;;;34.00
9119;BMP180;4594;50.994;7.126;2023-07-13T12:56:03;100844.00;;;34.00
9119;BMP180;4594;50.994;7.126;2023-07-13T12:58:41;100849.00;;;34.00
9119;BMP180;4594;50.994;7.126;2023-07-13T13:01:11;100831.00;;;34.00
9119;BMP180;4594;50.994;7.126;2023-07-13T13:03:48;100844.00;;;33.90
9119;BMP180;4594;50.994;7.126;2023-07-13T13:08:46;100849.00;;;33.70
9119;BMP180;4594;50.994;7.126;2023-07-13T13:11:14;100844.00;;;33.60
9119;BMP180;4594;50.994;7.126;2023-07-13T13:13:42;100834.00;;;33.60
9119;BMP180;4594;50.994;7.126;2023-07-13T13:16:29;100830.00;;;33.60
9119;BMP180;4594;50.994;7.126;2023-07-13T13:19:05;100828.00;;;33.60
9119;BMP180;4594;50.994;7.126;2023-07-13T13:21:36;100828.00;;;33.60
9119;BMP180;4594;50.994;7.126;2023-07-13T13:24:02;100834.00;;;33.50
9119;BMP180;4594;50.994;7.126;2023-07-13T13:26:27;100843.00;;;33.50
9119;BMP180;4594;50.994;7.126;2023-07-13T13:28:53;100816.00;;;33.40
9119;BMP180;4594;50.994;7.126;2023-07-13T13:31:19;100822.00;;;33.40
9119;BMP180;4594;50.994;7.126;2023-07-13T13:33:45;100824.00;;;33.30
9119;BMP180;4594;50.994;7.126;2023-07-13T13:36:21;100829.00;;;33.20
9119;BMP180;4594;50.994;7.126;2023-07-13T13:38:49;100829.00;;;33.10
9119;BMP180;4594;50.994;7.126;2023-07-13T13:41:16;100815.00;;;33.00
9119;BMP180;4594;50.994;7.126;2023-07-13T13:43:43;100834.00;;;32.90
9119;BMP180;4594;50.994;7.126;2023-07-13T13:46:24;100830.00;;;32.80
9119;BMP180;4594;50.994;7.126;2023-07-13T13:48:51;100820.00;;;32.70
9119;BMP180;4594;50.994;7.126;2023-07-13T13:51:22;100831.00;;;32.70
9119;BMP180;4594;50.994;7.126;2023-07-13T13:53:49;100828.00;;;32.60
9119;BMP180;4594;50.994;7.126;2023-07-13T13:56:18;100830.00;;;32.60
9119;BMP180;4594;50.994;7.126;2023-07-13T13:58:45;100832.00;;;32.50
9119;BMP180;4594;50.994;7.126;2023-07-13T14:01:22;100818.00;;;32.50
9119;BMP180;4594;50.994;7.126;2023-07-13T14:03:49;100817.00;;;32.40
9119;BMP180;4594;50.994;7.126;2023-07-13T14:06:17;100803.00;;;32.40
9119;BMP180;4594;50.994;7.126;2023-07-13T14:08:43;100810.00;;;32.40
9119;BMP180;4594;50.994;7.126;2023-07-13T14:11:15;100812.00;;;32.50
9119;BMP180;4594;50.994;7.126;2023-07-13T14:13:53;100814.00;;;32.50
9119;BMP180;4594;50.994;7.126;2023-07-13T14:16:23;100806.00;;;32.40
9119;BMP180;4594;50.994;7.126;2023-07-13T14:18:53;100823.00;;;32.40
9119;BMP180;4594;50.994;7.126;2023-07-13T14:21:22;100823.00;;;32.30
9119;BMP180;4594;50.994;7.126;2023-07-13T14:23:49;100814.00;;;32.30
9119;BMP180;4594;50.994;7.126;2023-07-13T14:26:20;100806.00;;;32.40
9119;BMP180;4594;50.994;7.126;2023-07-13T14:28:56;100800.00;;;32.40
9119;BMP180;4594;50.994;7.126;2023-07-13T14:31:25;100797.00;;;32.40
9119;BMP180;4594;50.994;7.126;2023-07-13T14:33:51;100810.00;;;32.40
9119;BMP180;4594;50.994;7.126;2023-07-13T14:36:45;100805.00;;;32.30
9119;BMP180;4594;50.994;7.126;2023-07-13T14:39:23;100815.00;;;32.30
9119;BMP180;4594;50.994;7.126;2023-07-13T14:41:55;100797.00;;;32.20
9119;BMP180;4594;50.994;7.126;2023-07-13T14:44:25;100799.00;;;32.20
9119;BMP180;4594;50.994;7.126;2023-07-13T14:46:52;100803.00;;;32.20
9119;BMP180;4594;50.994;7.126;2023-07-13T14:49:40;100812.00;;;32.20
9119;BMP180;4594;50.994;7.126;2023-07-13T14:52:19;100808.00;;;32.20
9119;BMP180;4594;50.994;7.126;2023-07-13T14:54:46;100817.00;;;32.20
9119;BMP180;4594;50.994;7.126;2023-07-13T14:57:15;100814.00;;;32.30
9119;BMP180;4594;50.994;7.126;2023-07-13T14:59:41;100805.00;;;32.20
9119;BMP180;4594;50.994;7.126;2023-07-13T15:02:31;100809.00;;;32.20
9119;BMP180;4594;50.994;7.126;2023-07-13T15:04:58;100818.00;;;32.10
9119;BMP180;4594;50.994;7.126;2023-07-13T15:07:24;100819.00;;;32.10
9119;BMP180;4594;50.994;7.126;2023-07-13T15:09:50;100820.00;;;32.10
9119;BMP180;4594;50.994;7.126;2023-07-13T15:12:17;100819.00;;;32.00
9119;BMP180;4594;50.994;7.126;2023-07-13T15:14:43;100816.00;;;32.00
9119;BMP180;4594;50.994;7.126;2023-07-13T15:17:38;100816.00;;;31.90